OIAG  Aghajari  Airport

Iran

Add Bookmark
Status
Operational
Latitude Longitude
30° 44' 39" N 49° 40' 37" E
30.744400 49.677200
Local (DST + 5) UTC (GMT + 4)
Mar 27, 2015 04:23 Mar 27, 2015 11:53
Sunrise-Sunset Local UTC
Begin Civil Twilight 06:41 02:11
Sunrise 07:05 02:35
Sunset 07:28 14:58
End Civil Twilight 07:52 15:22

Current Weather

METAR Observed VFR
OIAG 271100Z 27006KT 9999 FEW030 28/05 Q1015 Fri, Mar 27, 2015 @ 11:00 UTC
(53 Minutes ago)
Visual Flight Rules
Wind Visibility Clouds Conditions
270° at 6 knots (11 kph) 10 km or more
  • Few at 3,000' AGL
  • No significant weather
Temperatures Readings Precipitation
Current Temp 28°C (82°F)
Dewpoint 5°C (41°F)
Humidity 23%
Altimeter 29.97"Hg
Sea Level Pressure 1015mb
Field Elevation 95.14'
None Recorded

Additional weather within a 92.6km radius of OIAG

Map ICAO Location
OIAM 54.4km W (248°)

24 Hour Weather History

Loading
-

24 Hour Weather Graphs

Loading
-

CheckWX.com is intended as a tool to help pilots better visualize weather data. It is not intended as a substitute for an official weather briefing obtained from a Flight Service Station. CheckWX.com does not meet the FAA requirements for an official pre-flight weather briefing. Therefore, it's important that pilots still call and obtain an official FSS pre-flight weather briefing.